createdAt,value
2023-05-10T00:04:51.779Z,100945.09
2023-05-10T00:09:54.266Z,100942.28
2023-05-10T00:14:56.752Z,100942.28
2023-05-10T00:20:01.343Z,100931.44
2023-05-10T00:25:04.016Z,100925.28
2023-05-10T00:30:08.234Z,100926.81
2023-05-10T00:35:12.103Z,100925.69
2023-05-10T00:40:15.410Z,100916.47
2023-05-10T00:45:18.048Z,100929.09
2023-05-10T00:50:21.994Z,100920.84
2023-05-10T00:55:24.762Z,100915.13
2023-05-10T01:00:27.325Z,100916.53
2023-05-10T01:05:31.249Z,100908.97
2023-05-10T01:10:33.863Z,100907.91
2023-05-10T01:15:37.588Z,100903.28
2023-05-10T01:20:47.261Z,100901.31
2023-05-10T01:26:15.880Z,100898.44
2023-05-10T01:31:37.860Z,100898.84
2023-05-10T01:36:47.444Z,100889.78
2023-05-10T01:41:55.033Z,100887.88
2023-05-10T01:47:09.308Z,100893.31
2023-05-10T01:52:16.775Z,100895.50
2023-05-10T01:57:22.286Z,100886.28
2023-05-10T02:02:27.810Z,100886.75
2023-05-10T02:07:34.197Z,100881.88
2023-05-10T02:12:38.725Z,100879.94
2023-05-10T02:17:42.515Z,100895.16
2023-05-10T02:22:47.715Z,100885.19
2023-05-10T02:27:51.831Z,100886.50
2023-05-10T02:32:55.120Z,100889.00
2023-05-10T02:38:00.714Z,100894.84
2023-05-10T02:43:04.678Z,100883.94
2023-05-10T02:48:07.793Z,100887.97
2023-05-10T02:53:20.109Z,100879.06
2023-05-10T02:58:23.681Z,100881.44
2023-05-10T03:03:26.225Z,100883.06
2023-05-10T03:08:30.898Z,100877.53
2023-05-10T03:13:41.599Z,100866.75
2023-05-10T03:18:46.782Z,100869.84
2023-05-10T03:23:58.487Z,100865.22
2023-05-10T03:29:02.127Z,100866.72
2023-05-10T03:34:04.632Z,100872.78
2023-05-10T03:39:08.474Z,100869.91
2023-05-10T03:44:11.619Z,100867.09
2023-05-10T03:49:14.267Z,100860.03
2023-05-10T03:54:18.331Z,100863.53
2023-05-10T03:59:21.011Z,100862.03
2023-05-10T04:04:24.119Z,100860.69
2023-05-10T04:09:28.229Z,100859.16
2023-05-10T04:14:30.740Z,100851.63
2023-05-10T04:19:33.737Z,100853.72
2023-05-10T04:24:37.595Z,100847.13
2023-05-10T04:29:40.218Z,100845.84
2023-05-10T04:34:42.706Z,100842.00
2023-05-10T04:39:46.621Z,100839.22
2023-05-10T04:44:49.134Z,100839.97
2023-05-10T04:49:51.649Z,100839.09
2023-05-10T04:54:55.655Z,100841.09
2023-05-10T04:59:58.147Z,100840.56
2023-05-10T05:05:00.651Z,100845.09
2023-05-10T05:10:04.704Z,100840.75
2023-05-10T05:15:09.883Z,100835.47
2023-05-10T05:20:13.962Z,100836.25
2023-05-10T05:25:17.904Z,100837.06
2023-05-10T05:30:20.836Z,100840.44
2023-05-10T05:35:23.370Z,100833.38
2023-05-10T05:40:27.401Z,100827.06
2023-05-10T05:45:29.968Z,100830.44
2023-05-10T05:50:32.523Z,100832.97
2023-05-10T05:55:36.350Z,100833.88
2023-05-10T06:00:38.912Z,100836.38
2023-05-10T06:05:41.419Z,100826.59
2023-05-10T06:10:45.415Z,100830.91
2023-05-10T06:15:48.019Z,100825.59
2023-05-10T06:20:51.458Z,100824.53
2023-05-10T06:25:55.378Z,100814.09
2023-05-10T06:30:57.869Z,100815.09
2023-05-10T06:36:00.459Z,100811.31
2023-05-10T06:41:04.285Z,100798.63
2023-05-10T06:46:06.955Z,100798.41
2023-05-10T06:51:09.518Z,100802.81
2023-05-10T06:56:13.313Z,100807.94
2023-05-10T07:01:16.061Z,100808.53
2023-05-10T07:06:29.418Z,100797.91
2023-05-10T07:11:38.322Z,100785.75
2023-05-10T07:16:41.014Z,100781.16
2023-05-10T07:21:44.292Z,100787.94
2023-05-10T07:26:48.148Z,100772.28
2023-05-10T07:31:50.662Z,100784.22
2023-05-10T07:36:53.267Z,100771.03
2023-05-10T07:41:57.852Z,100771.59
2023-05-10T07:47:00.396Z,100777.97
2023-05-10T07:52:02.888Z,100771.97
2023-05-10T07:57:07.203Z,100767.56
2023-05-10T08:02:09.730Z,100766.44
2023-05-10T08:07:12.281Z,100761.81
2023-05-10T08:12:16.116Z,100758.94
2023-05-10T08:17:20.058Z,100757.31
2023-05-10T08:22:23.185Z,100762.69
2023-05-10T08:27:27.057Z,100766.44
2023-05-10T08:32:29.581Z,100767.22
2023-05-10T08:37:33.227Z,100759.69
2023-05-10T08:42:38.780Z,100751.56
2023-05-10T08:47:41.610Z,100761.47
2023-05-10T08:52:44.751Z,100763.22
2023-05-10T08:57:48.820Z,100764.88
2023-05-10T09:02:51.869Z,100759.25
2023-05-10T09:07:54.746Z,100751.56
2023-05-10T09:12:59.782Z,100755.53
2023-05-10T09:18:03.351Z,100762.59
2023-05-10T09:23:05.996Z,100758.28
2023-05-10T09:28:10.840Z,100765.50
2023-05-10T09:33:13.346Z,100763.41
2023-05-10T09:38:16.309Z,100757.19
2023-05-10T09:43:20.138Z,100758.59
2023-05-10T09:48:26.686Z,100763.88
2023-05-10T09:53:29.230Z,100765.69
2023-05-10T09:58:33.101Z,100763.47
2023-05-10T10:03:35.781Z,100768.16
2023-05-10T10:08:38.772Z,100764.72
2023-05-10T10:13:42.691Z,100774.66
2023-05-10T10:18:45.519Z,100758.59
2023-05-10T10:23:48.457Z,100762.22
2023-05-10T10:29:02.183Z,100764.97
2023-05-10T10:34:07.983Z,100757.81
2023-05-10T10:39:12.377Z,100761.41
2023-05-10T10:44:36.398Z,100765.00
2023-05-10T10:49:44.806Z,100751.56
2023-05-10T10:54:52.923Z,100755.22
2023-05-10T11:00:20.628Z,100752.56
2023-05-10T11:05:37.999Z,100761.50
2023-05-10T11:10:42.077Z,100758.81
2023-05-10T11:15:51.681Z,100762.38
2023-05-10T11:20:57.026Z,100756.16
2023-05-10T11:26:00.722Z,100752.59
2023-05-10T11:31:04.718Z,100758.78
2023-05-10T11:36:07.802Z,100753.44
2023-05-10T11:41:10.990Z,100753.38
2023-05-10T11:46:15.373Z,100747.97
2023-05-10T11:51:22.454Z,100753.31
2023-05-10T11:56:27.000Z,100760.41
2023-05-10T12:01:31.006Z,100760.34
2023-05-10T12:06:39.640Z,100767.47
2023-05-10T12:11:44.329Z,100761.06
2023-05-10T12:16:49.824Z,100753.78
2023-05-10T12:21:52.414Z,100760.81
2023-05-10T12:26:54.901Z,100758.00
2023-05-10T12:32:00.851Z,100762.44
2023-05-10T12:37:04.523Z,100766.94
2023-05-10T12:42:07.303Z,100757.88
2023-05-10T12:47:11.722Z,100765.16
2023-05-10T12:52:14.318Z,100767.88
2023-05-10T12:57:16.830Z,100767.84
2023-05-10T13:02:21.947Z,100767.72
2023-05-10T13:07:24.438Z,100758.69
2023-05-10T13:12:27.195Z,100761.44
2023-05-10T13:17:32.232Z,100764.03
2023-05-10T13:22:40.633Z,100762.91
2023-05-10T13:27:43.457Z,100770.84
2023-05-10T13:32:47.519Z,100766.28
2023-05-10T13:37:50.027Z,100756.44
2023-05-10T13:42:53.961Z,100755.69
2023-05-10T13:47:58.267Z,100756.66
2023-05-10T13:53:01.096Z,100765.50
2023-05-10T13:58:03.631Z,100764.50
2023-05-10T14:03:10.029Z,100762.53
2023-05-10T14:08:14.141Z,100767.88
2023-05-10T14:13:17.160Z,100764.38
2023-05-10T14:18:20.995Z,100754.69
2023-05-10T14:23:25.163Z,100752.03
2023-05-10T14:28:27.738Z,100748.34
2023-05-10T14:33:31.604Z,100757.97
2023-05-10T14:38:34.217Z,100747.78
2023-05-10T14:43:37.571Z,100759.28
2023-05-10T14:48:41.414Z,100756.28
2023-05-10T14:53:44.679Z,100736.34
2023-05-10T14:58:47.196Z,100757.31
2023-05-10T15:03:51.207Z,100759.78
2023-05-10T15:08:54.264Z,100751.63
2023-05-10T15:13:57.132Z,100763.34
2023-05-10T15:19:01.107Z,100764.50
2023-05-10T15:24:03.766Z,100768.06
2023-05-10T15:29:06.294Z,100770.09
2023-05-10T15:34:10.173Z,100779.28
2023-05-10T15:39:12.987Z,100771.94
2023-05-10T15:44:15.500Z,100767.59
2023-05-10T15:49:19.333Z,100768.59
2023-05-10T15:54:21.856Z,100775.78
2023-05-10T15:59:24.358Z,100776.00
2023-05-10T16:04:28.206Z,100778.00
2023-05-10T16:09:30.760Z,100793.56
2023-05-10T16:14:33.371Z,100809.00
2023-05-10T16:19:37.271Z,100820.00
2023-05-10T16:24:39.787Z,100830.03
2023-05-10T16:29:42.280Z,100836.47
2023-05-10T16:34:46.135Z,100843.78
2023-05-10T16:39:48.978Z,100851.88
2023-05-10T16:44:51.470Z,100853.69
2023-05-10T16:49:56.089Z,100860.81
2023-05-10T16:54:58.874Z,100872.38
2023-05-10T17:00:01.486Z,100876.81
2023-05-10T17:05:06.195Z,100887.53
2023-05-10T17:10:09.576Z,100885.66
2023-05-10T17:15:12.653Z,100896.22
2023-05-10T17:20:16.681Z,100903.25
2023-05-10T17:25:19.621Z,100899.56
2023-05-10T17:30:26.284Z,100907.38
2023-05-10T17:35:31.430Z,100921.53
2023-05-10T17:40:33.977Z,100932.19
2023-05-10T17:45:37.079Z,100928.53
2023-05-10T17:50:42.720Z,100940.50
2023-05-10T17:55:45.278Z,100938.38
2023-05-10T18:00:47.807Z,100943.44
2023-05-10T18:05:51.921Z,100952.94
2023-05-10T18:10:54.445Z,100961.72
2023-05-10T18:15:57.041Z,100959.78
2023-05-10T18:21:01.036Z,100964.16
2023-05-10T18:26:03.719Z,100976.50
2023-05-10T18:31:06.337Z,100978.94
2023-05-10T18:36:10.438Z,100985.81
2023-05-10T18:41:14.524Z,100999.63
2023-05-10T18:46:17.269Z,101001.88
2023-05-10T18:51:22.136Z,101000.88
2023-05-10T18:56:24.805Z,101001.69
2023-05-10T19:01:27.364Z,100999.78
2023-05-10T19:06:31.447Z,101001.41
2023-05-10T19:11:34.510Z,101019.88
2023-05-10T19:16:37.239Z,101027.53
2023-05-10T19:21:41.206Z,101031.66
2023-05-10T19:26:43.726Z,101044.03
2023-05-10T19:31:46.463Z,101039.56
2023-05-10T19:36:50.702Z,101044.59
2023-05-10T19:41:53.408Z,101053.38
2023-05-10T19:46:56.195Z,101051.53
2023-05-10T19:52:00.074Z,101055.91
2023-05-10T19:57:02.639Z,101052.22
2023-05-10T20:02:05.350Z,101059.13
2023-05-10T20:07:14.668Z,101064.34
2023-05-10T20:12:18.819Z,101066.91
2023-05-10T20:17:23.632Z,101064.91
2023-05-10T20:22:29.686Z,101071.75
2023-05-10T20:27:41.559Z,101071.50
2023-05-10T20:32:44.535Z,101076.56
2023-05-10T20:37:48.623Z,101071.81
2023-05-10T20:42:53.887Z,101071.31
2023-05-10T20:47:56.988Z,101081.03
2023-05-10T20:53:02.093Z,101077.09
2023-05-10T20:58:05.083Z,101077.91
2023-05-10T21:03:07.955Z,101078.56
2023-05-10T21:08:11.806Z,101080.94
2023-05-10T21:13:14.409Z,101083.59
2023-05-10T21:18:16.973Z,101089.16
2023-05-10T21:23:20.867Z,101089.09
2023-05-10T21:28:23.430Z,101090.13
2023-05-10T21:33:25.959Z,101079.59
2023-05-10T21:38:29.814Z,101080.44
2023-05-10T21:43:32.300Z,101079.38
2023-05-10T21:48:34.813Z,101080.75
2023-05-10T21:53:40.411Z,101077.84
2023-05-10T21:58:42.925Z,101078.72
2023-05-10T22:03:45.717Z,101082.22
2023-05-10T22:08:49.576Z,101082.91
2023-05-10T22:13:52.078Z,101088.03
2023-05-10T22:18:55.053Z,101087.09
2023-05-10T22:23:58.986Z,101088.03
2023-05-10T22:29:01.619Z,101099.47
2023-05-10T22:34:04.121Z,101098.44
2023-05-10T22:39:08.307Z,101103.66
2023-05-10T22:44:10.808Z,101099.84
2023-05-10T22:49:13.888Z,101108.41
2023-05-10T22:54:17.735Z,101113.28
2023-05-10T22:59:20.757Z,101114.06
2023-05-10T23:04:23.291Z,101107.38
2023-05-10T23:09:27.184Z,101116.16
2023-05-10T23:14:30.087Z,101109.31
2023-05-10T23:19:32.585Z,101115.47
2023-05-10T23:24:36.880Z,101119.09
2023-05-10T23:29:39.386Z,101114.69
2023-05-10T23:34:41.879Z,101121.69
2023-05-10T23:39:45.710Z,101124.88
2023-05-10T23:44:48.187Z,101118.28
2023-05-10T23:49:50.988Z,101117.13
2023-05-10T23:54:54.987Z,101115.09
2023-05-10T23:59:57.493Z,101120.09
